sensor_id;sensor_type;location;lat;lon;timestamp;temperature;humidity
56980;DHT22;42867;48.186;11.534;2022-11-15T00:15:10;7.80;99.90
56980;DHT22;42867;48.186;11.534;2022-11-15T00:20:02;8.20;99.90
56980;DHT22;42867;48.186;11.534;2022-11-15T00:22:32;8.00;99.90
56980;DHT22;42867;48.186;11.534;2022-11-15T01:13:39;7.70;99.90
56980;DHT22;42867;48.186;11.534;2022-11-15T01:16:17;7.50;99.90
56980;DHT22;42867;48.186;11.534;2022-11-15T01:21:12;7.70;99.90
56980;DHT22;42867;48.186;11.534;2022-11-15T01:23:39;7.40;99.90
56980;DHT22;42867;48.186;11.534;2022-11-15T01:26:07;7.60;99.90
56980;DHT22;42867;48.186;11.534;2022-11-15T01:28:34;7.70;99.90
56980;DHT22;42867;48.186;11.534;2022-11-15T01:31:03;7.60;99.90
56980;DHT22;42867;48.186;11.534;2022-11-15T01:38:22;7.50;99.90
56980;DHT22;42867;48.186;11.534;2022-11-15T01:43:39;7.60;99.90
56980;DHT22;42867;48.186;11.534;2022-11-15T01:48:51;7.40;99.90
56980;DHT22;42867;48.186;11.534;2022-11-15T01:51:21;7.40;99.90
56980;DHT22;42867;48.186;11.534;2022-11-15T01:53:50;7.40;99.90
56980;DHT22;42867;48.186;11.534;2022-11-15T01:56:19;7.40;99.90
56980;DHT22;42867;48.186;11.534;2022-11-15T02:01:12;7.30;99.90
56980;DHT22;42867;48.186;11.534;2022-11-15T02:03:52;7.30;99.90
56980;DHT22;42867;48.186;11.534;2022-11-15T02:06:20;7.20;99.90
56980;DHT22;42867;48.186;11.534;2022-11-15T02:08:47;7.40;99.90
56980;DHT22;42867;48.186;11.534;2022-11-15T02:21:27;6.20;99.90
56980;DHT22;42867;48.186;11.534;2022-11-15T02:27:11;6.80;99.90
56980;DHT22;42867;48.186;11.534;2022-11-15T02:37:42;6.50;99.90
56980;DHT22;42867;48.186;11.534;2022-11-15T02:40:13;6.50;99.90
56980;DHT22;42867;48.186;11.534;2022-11-15T02:42:48;6.50;99.90
56980;DHT22;42867;48.186;11.534;2022-11-15T02:45:39;6.50;99.90
56980;DHT22;42867;48.186;11.534;2022-11-15T02:48:06;6.50;99.90
56980;DHT22;42867;48.186;11.534;2022-11-15T03:00:49;6.30;99.90
56980;DHT22;42867;48.186;11.534;2022-11-15T03:08:30;6.30;99.90
56980;DHT22;42867;48.186;11.534;2022-11-15T03:13:49;6.40;99.90
56980;DHT22;42867;48.186;11.534;2022-11-15T03:16:27;6.20;99.90
56980;DHT22;42867;48.186;11.534;2022-11-15T03:23:58;6.50;99.90
56980;DHT22;42867;48.186;11.534;2022-11-15T03:26:28;6.50;99.90
56980;DHT22;42867;48.186;11.534;2022-11-15T03:28:58;6.50;99.90
56980;DHT22;42867;48.186;11.534;2022-11-15T03:31:27;6.50;99.90
56980;DHT22;42867;48.186;11.534;2022-11-15T03:36:46;6.50;99.90
56980;DHT22;42867;48.186;11.534;2022-11-15T03:42:03;6.40;99.90
56980;DHT22;42867;48.186;11.534;2022-11-15T03:49:49;5.90;99.90
56980;DHT22;42867;48.186;11.534;2022-11-15T03:54:52;5.90;99.90
56980;DHT22;42867;48.186;11.534;2022-11-15T03:57:19;5.70;99.90
56980;DHT22;42867;48.186;11.534;2022-11-15T04:04:37;6.40;99.90
56980;DHT22;42867;48.186;11.534;2022-11-15T04:59:07;5.80;99.90
56980;DHT22;42867;48.186;11.534;2022-11-15T05:50:47;5.70;99.90
56980;DHT22;42867;48.186;11.534;2022-11-15T05:53:15;5.70;99.90
56980;DHT22;42867;48.186;11.534;2022-11-15T06:15:10;6.00;99.90
56980;DHT22;42867;48.186;11.534;2022-11-15T06:20:02;6.00;99.90
56980;DHT22;42867;48.186;11.534;2022-11-15T06:27:19;5.90;99.90
56980;DHT22;42867;48.186;11.534;2022-11-15T06:34:37;6.00;99.90
56980;DHT22;42867;48.186;11.534;2022-11-15T06:54:05;6.00;99.90
56980;DHT22;42867;48.186;11.534;2022-11-15T07:11:08;6.10;99.90
56980;DHT22;42867;48.186;11.534;2022-11-15T07:18:36;6.20;99.90
56980;DHT22;42867;48.186;11.534;2022-11-15T07:21:08;6.10;99.90
56980;DHT22;42867;48.186;11.534;2022-11-15T07:28:30;6.10;99.90
56980;DHT22;42867;48.186;11.534;2022-11-15T07:40:46;6.50;99.90
56980;DHT22;42867;48.186;11.534;2022-11-15T07:45:43;6.40;99.90
56980;DHT22;42867;48.186;11.534;2022-11-15T07:55:27;6.70;99.90
56980;DHT22;42867;48.186;11.534;2022-11-15T07:58:06;6.80;99.90
56980;DHT22;42867;48.186;11.534;2022-11-15T08:00:33;6.80;99.90
56980;DHT22;42867;48.186;11.534;2022-11-15T08:07:55;6.90;99.90
56980;DHT22;42867;48.186;11.534;2022-11-15T08:22:33;7.30;99.90
56980;DHT22;42867;48.186;11.534;2022-11-15T08:39:37;7.80;99.90
56980;DHT22;42867;48.186;11.534;2022-11-15T08:51:48;8.30;99.90
56980;DHT22;42867;48.186;11.534;2022-11-15T09:01:34;8.40;99.90
56980;DHT22;42867;48.186;11.534;2022-11-15T09:11:24;8.60;99.90
56980;DHT22;42867;48.186;11.534;2022-11-15T09:21:09;8.70;99.90
56980;DHT22;42867;48.186;11.534;2022-11-15T09:26:03;8.70;99.90
56980;DHT22;42867;48.186;11.534;2022-11-15T09:30:57;8.90;99.90
56980;DHT22;42867;48.186;11.534;2022-11-15T09:48:57;10.10;99.90
56980;DHT22;42867;48.186;11.534;2022-11-15T09:56:31;9.50;99.90
56980;DHT22;42867;48.186;11.534;2022-11-15T09:59:26;9.60;99.90
56980;DHT22;42867;48.186;11.534;2022-11-15T10:07:04;9.80;99.90
56980;DHT22;42867;48.186;11.534;2022-11-15T10:10:08;9.90;99.90
56980;DHT22;42867;48.186;11.534;2022-11-15T10:15:05;7.80;99.90
56980;DHT22;42867;48.186;11.534;2022-11-15T10:20:47;10.10;99.90
56980;DHT22;42867;48.186;11.534;2022-11-15T10:23:18;10.10;99.90
56980;DHT22;42867;48.186;11.534;2022-11-15T10:28:28;10.50;99.90
56980;DHT22;42867;48.186;11.534;2022-11-15T10:30:59;10.80;99.90
56980;DHT22;42867;48.186;11.534;2022-11-15T10:41:19;10.90;99.90
56980;DHT22;42867;48.186;11.534;2022-11-15T10:44:01;11.00;99.90
56980;DHT22;42867;48.186;11.534;2022-11-15T10:51:26;11.20;99.90
56980;DHT22;42867;48.186;11.534;2022-11-15T10:53:59;11.30;99.90
56980;DHT22;42867;48.186;11.534;2022-11-15T10:56:26;11.30;99.90
56980;DHT22;42867;48.186;11.534;2022-11-15T10:58:56;11.40;99.90
56980;DHT22;42867;48.186;11.534;2022-11-15T11:01:28;11.50;99.90
56980;DHT22;42867;48.186;11.534;2022-11-15T11:04:06;11.50;99.90
56980;DHT22;42867;48.186;11.534;2022-11-15T11:06:53;11.50;99.90
56980;DHT22;42867;48.186;11.534;2022-11-15T11:09:31;11.70;99.90
56980;DHT22;42867;48.186;11.534;2022-11-15T11:14:38;11.90;99.90
56980;DHT22;42867;48.186;11.534;2022-11-15T11:17:31;12.00;99.90
56980;DHT22;42867;48.186;11.534;2022-11-15T11:20:25;12.60;99.90
56980;DHT22;42867;48.186;11.534;2022-11-15T11:25:51;12.80;99.90
56980;DHT22;42867;48.186;11.534;2022-11-15T11:28:30;12.90;99.90
56980;DHT22;42867;48.186;11.534;2022-11-15T11:31:28;13.50;99.90
56980;DHT22;42867;48.186;11.534;2022-11-15T11:39:17;14.00;99.40
56980;DHT22;42867;48.186;11.534;2022-11-15T11:42:00;14.20;97.60
56980;DHT22;42867;48.186;11.534;2022-11-15T11:47:21;14.50;97.00
56980;DHT22;42867;48.186;11.534;2022-11-15T11:49:51;14.50;99.90
56980;DHT22;42867;48.186;11.534;2022-11-15T11:52:25;14.70;95.90
56980;DHT22;42867;48.186;11.534;2022-11-15T11:57:27;15.10;93.50
56980;DHT22;42867;48.186;11.534;2022-11-15T12:02:43;15.30;93.80
56980;DHT22;42867;48.186;11.534;2022-11-15T12:05:33;15.60;94.10
56980;DHT22;42867;48.186;11.534;2022-11-15T12:20:59;15.60;87.80
56980;DHT22;42867;48.186;11.534;2022-11-15T12:23:34;15.50;88.10
56980;DHT22;42867;48.186;11.534;2022-11-15T12:26:09;15.40;90.50
56980;DHT22;42867;48.186;11.534;2022-11-15T12:28:57;15.40;94.50
56980;DHT22;42867;48.186;11.534;2022-11-15T12:31:52;15.20;92.20
56980;DHT22;42867;48.186;11.534;2022-11-15T12:36:49;15.00;92.80
56980;DHT22;42867;48.186;11.534;2022-11-15T12:39:16;14.90;92.60
56980;DHT22;42867;48.186;11.534;2022-11-15T12:47:04;14.70;92.90
56980;DHT22;42867;48.186;11.534;2022-11-15T13:02:20;14.30;93.60
56980;DHT22;42867;48.186;11.534;2022-11-15T13:22:44;14.40;97.20
56980;DHT22;42867;48.186;11.534;2022-11-15T13:25:46;14.60;97.40
56980;DHT22;42867;48.186;11.534;2022-11-15T13:30:54;14.70;97.20
56980;DHT22;42867;48.186;11.534;2022-11-15T13:36:03;14.90;95.90
56980;DHT22;42867;48.186;11.534;2022-11-15T13:38:33;15.00;96.10
56980;DHT22;42867;48.186;11.534;2022-11-15T13:41:00;15.20;95.90
56980;DHT22;42867;48.186;11.534;2022-11-15T13:43:36;15.40;97.00
56980;DHT22;42867;48.186;11.534;2022-11-15T13:46:13;16.00;97.80
56980;DHT22;42867;48.186;11.534;2022-11-15T13:48:40;15.90;96.80
56980;DHT22;42867;48.186;11.534;2022-11-15T13:56:42;16.00;96.00
56980;DHT22;42867;48.186;11.534;2022-11-15T13:59:28;15.90;96.20
56980;DHT22;42867;48.186;11.534;2022-11-15T14:01:57;15.80;96.90
56980;DHT22;42867;48.186;11.534;2022-11-15T14:04:25;15.90;97.00
56980;DHT22;42867;48.186;11.534;2022-11-15T14:06:55;16.10;96.00
56980;DHT22;42867;48.186;11.534;2022-11-15T14:09:31;16.30;99.90
56980;DHT22;42867;48.186;11.534;2022-11-15T14:11:59;15.80;99.90
56980;DHT22;42867;48.186;11.534;2022-11-15T14:14:27;16.40;95.20
56980;DHT22;42867;48.186;11.534;2022-11-15T14:17:00;16.60;95.20
56980;DHT22;42867;48.186;11.534;2022-11-15T14:22:22;16.80;94.70
56980;DHT22;42867;48.186;11.534;2022-11-15T14:25:29;16.60;94.80
56980;DHT22;42867;48.186;11.534;2022-11-15T14:30:45;16.00;96.90
56980;DHT22;42867;48.186;11.534;2022-11-15T14:33:38;15.70;98.50
56980;DHT22;42867;48.186;11.534;2022-11-15T14:36:11;15.40;99.10
56980;DHT22;42867;48.186;11.534;2022-11-15T14:53:17;13.50;99.90
56980;DHT22;42867;48.186;11.534;2022-11-15T15:00:40;13.00;99.90
56980;DHT22;42867;48.186;11.534;2022-11-15T15:05:39;12.80;99.90
56980;DHT22;42867;48.186;11.534;2022-11-15T15:08:05;12.80;99.90
56980;DHT22;42867;48.186;11.534;2022-11-15T15:10:34;12.50;99.90
56980;DHT22;42867;48.186;11.534;2022-11-15T15:25:33;12.10;99.90
56980;DHT22;42867;48.186;11.534;2022-11-15T15:40:18;11.80;99.90
56980;DHT22;42867;48.186;11.534;2022-11-15T16:02:13;11.50;99.90
56980;DHT22;42867;48.186;11.534;2022-11-15T16:20:49;11.60;99.90
56980;DHT22;42867;48.186;11.534;2022-11-15T16:23:18;11.20;99.90
56980;DHT22;42867;48.186;11.534;2022-11-15T16:25:53;11.30;99.90
56980;DHT22;42867;48.186;11.534;2022-11-15T16:30:47;11.20;99.90
56980;DHT22;42867;48.186;11.534;2022-11-15T16:35:39;11.20;99.90
56980;DHT22;42867;48.186;11.534;2022-11-15T16:40:34;11.00;99.90
56980;DHT22;42867;48.186;11.534;2022-11-15T16:50:30;10.90;99.90
56980;DHT22;42867;48.186;11.534;2022-11-15T17:00:20;10.90;99.90
56980;DHT22;42867;48.186;11.534;2022-11-15T17:02:47;10.90;99.90
56980;DHT22;42867;48.186;11.534;2022-11-15T17:11:05;10.80;99.90
56980;DHT22;42867;48.186;11.534;2022-11-15T17:16:09;10.80;99.90
56980;DHT22;42867;48.186;11.534;2022-11-15T17:21:15;10.80;99.90
56980;DHT22;42867;48.186;11.534;2022-11-15T17:26:09;10.80;99.90
56980;DHT22;42867;48.186;11.534;2022-11-15T17:31:08;10.70;99.90
56980;DHT22;42867;48.186;11.534;2022-11-15T17:36:03;10.70;99.90
56980;DHT22;42867;48.186;11.534;2022-11-15T17:41:02;10.70;99.90
56980;DHT22;42867;48.186;11.534;2022-11-15T17:43:29;10.70;99.90
56980;DHT22;42867;48.186;11.534;2022-11-15T17:51:00;10.70;99.90
56980;DHT22;42867;48.186;11.534;2022-11-15T18:00:45;10.70;99.90
56980;DHT22;42867;48.186;11.534;2022-11-15T18:25:07;10.20;99.90
56980;DHT22;42867;48.186;11.534;2022-11-15T18:34:52;10.30;99.90
56980;DHT22;42867;48.186;11.534;2022-11-15T18:39:46;11.50;99.90
56980;DHT22;42867;48.186;11.534;2022-11-15T18:59:14;10.30;99.90
56980;DHT22;42867;48.186;11.534;2022-11-15T19:06:40;10.40;99.90
56980;DHT22;42867;48.186;11.534;2022-11-15T19:09:07;10.30;99.90
56980;DHT22;42867;48.186;11.534;2022-11-15T19:11:36;10.30;99.90
56980;DHT22;42867;48.186;11.534;2022-11-15T19:14:06;10.30;99.90
56980;DHT22;42867;48.186;11.534;2022-11-15T19:19:02;10.40;99.90
56980;DHT22;42867;48.186;11.534;2022-11-15T19:23:57;10.50;99.90
56980;DHT22;42867;48.186;11.534;2022-11-15T19:28:52;10.50;99.90
56980;DHT22;42867;48.186;11.534;2022-11-15T19:36:13;10.50;99.90
56980;DHT22;42867;48.186;11.534;2022-11-15T19:38:39;10.80;99.90
56980;DHT22;42867;48.186;11.534;2022-11-15T19:41:10;10.50;99.90
56980;DHT22;42867;48.186;11.534;2022-11-15T19:46:04;10.50;99.90
56980;DHT22;42867;48.186;11.534;2022-11-15T19:48:32;10.50;99.90
56980;DHT22;42867;48.186;11.534;2022-11-15T19:51:03;11.70;99.90
56980;DHT22;42867;48.186;11.534;2022-11-15T19:53:30;13.80;99.90
56980;DHT22;42867;48.186;11.534;2022-11-15T19:56:16;10.50;99.90
56980;DHT22;42867;48.186;11.534;2022-11-15T19:58:43;10.50;99.90
56980;DHT22;42867;48.186;11.534;2022-11-15T20:01:23;10.50;99.90
56980;DHT22;42867;48.186;11.534;2022-11-15T20:03:50;10.50;99.90
56980;DHT22;42867;48.186;11.534;2022-11-15T20:06:21;10.50;99.90
56980;DHT22;42867;48.186;11.534;2022-11-15T20:11:13;10.40;99.90
56980;DHT22;42867;48.186;11.534;2022-11-15T20:16:06;10.50;99.90
56980;DHT22;42867;48.186;11.534;2022-11-15T20:23:25;10.40;99.90
56980;DHT22;42867;48.186;11.534;2022-11-15T20:28:23;10.50;99.90
56980;DHT22;42867;48.186;11.534;2022-11-15T20:30:52;10.50;99.90
56980;DHT22;42867;48.186;11.534;2022-11-15T20:50:24;10.50;99.90
56980;DHT22;42867;48.186;11.534;2022-11-15T21:00:09;10.40;99.90
56980;DHT22;42867;48.186;11.534;2022-11-15T21:15:06;10.40;99.90
56980;DHT22;42867;48.186;11.534;2022-11-15T22:09:05;10.40;99.90
56980;DHT22;42867;48.186;11.534;2022-11-15T22:13:58;10.10;99.90
56980;DHT22;42867;48.186;11.534;2022-11-15T22:21:20;10.10;99.90
56980;DHT22;42867;48.186;11.534;2022-11-15T22:26:14;10.10;99.90
56980;DHT22;42867;48.186;11.534;2022-11-15T22:43:20;9.90;99.90
56980;DHT22;42867;48.186;11.534;2022-11-15T22:45:57;9.80;99.90
56980;DHT22;42867;48.186;11.534;2022-11-15T22:48:27;9.70;99.90
56980;DHT22;42867;48.186;11.534;2022-11-15T22:50:54;9.70;99.90
56980;DHT22;42867;48.186;11.534;2022-11-15T22:55:54;9.50;99.90
56980;DHT22;42867;48.186;11.534;2022-11-15T22:58:22;9.80;99.90
56980;DHT22;42867;48.186;11.534;2022-11-15T23:00:49;9.70;99.90
56980;DHT22;42867;48.186;11.534;2022-11-15T23:03:16;9.70;99.90
56980;DHT22;42867;48.186;11.534;2022-11-15T23:15:46;9.50;99.90
56980;DHT22;42867;48.186;11.534;2022-11-15T23:18:33;9.50;99.90
56980;DHT22;42867;48.186;11.534;2022-11-15T23:23:26;9.50;99.90
56980;DHT22;42867;48.186;11.534;2022-11-15T23:36:19;9.10;99.90
56980;DHT22;42867;48.186;11.534;2022-11-15T23:41:12;9.20;99.90
56980;DHT22;42867;48.186;11.534;2022-11-15T23:50:55;9.40;99.90
56980;DHT22;42867;48.186;11.534;2022-11-15T23:55:55;9.30;99.90
